Time;durP1;ratioP1;P1;durP2;ratioP2;P2;SDS_P1;SDS_P2;PMS_P1;PMS_P2;Temp;Humidity;BMP_temperature;BMP_pressure;BME280_temperature;BME280_humidity;BME280_pressure;Samples;Min_cycle;Max_cycle;Signal;HPM_P1;HPM_P2
2023/12/16 00:00:45;;;;;;;25.58;22.83;;;13.90;99.90;;;;;;4949263;28;20053;-65
2023/12/16 00:03:11;;;;;;;32.10;23.23;;;14.40;99.90;;;;;;4948650;29;20043;-65
2023/12/16 00:05:37;;;;;;;25.70;19.23;;;14.40;99.90;;;;;;4948573;29;20050;-65
2023/12/16 00:08:03;;;;;;;29.77;21.73;;;14.50;99.90;;;;;;4949441;29;20054;-65
2023/12/16 00:10:28;;;;;;;25.48;21.90;;;14.20;99.90;;;;;;4948042;29;20509;-64
2023/12/16 00:12:54;;;;;;;27.25;22.42;;;14.40;99.90;;;;;;4948202;29;20059;-65
2023/12/16 00:15:20;;;;;;;33.83;23.48;;;14.20;99.90;;;;;;4947876;29;20051;-65
2023/12/16 00:17:45;;;;;;;30.83;23.02;;;13.70;99.90;;;;;;4947595;29;20410;-65
2023/12/16 00:20:11;;;;;;;24.85;21.05;;;13.90;99.90;;;;;;4948002;29;20051;-65
2023/12/16 00:22:40;;;;;;;30.58;21.20;;;13.80;99.90;;;;;;4947805;29;20051;-65
2023/12/16 00:25:09;;;;;;;26.42;22.13;;;14.40;99.90;;;;;;4948268;29;20054;-65
2023/12/16 00:27:35;;;;;;;28.23;21.50;;;13.90;99.90;;;;;;4949536;28;20406;-64
2023/12/16 00:30:01;;;;;;;25.88;21.98;;;14.30;99.90;;;;;;4948313;29;20086;-66
2023/12/16 00:32:26;;;;;;;29.52;22.23;;;14.00;99.90;;;;;;4948526;29;20443;-65
2023/12/16 00:34:52;;;;;;;29.85;21.48;;;14.40;99.90;;;;;;4948075;29;20054;-65
2023/12/16 00:37:18;;;;;;;29.95;20.95;;;14.20;99.90;;;;;;4948075;29;20066;-64
2023/12/16 00:39:43;;;;;;;26.63;21.40;;;13.80;99.90;;;;;;4947710;29;20050;-64
2023/12/16 00:42:09;;;;;;;29.40;21.77;;;13.80;99.90;;;;;;4948103;29;20051;-64
2023/12/16 00:44:34;;;;;;;32.33;22.98;;;13.90;99.90;;;;;;4932571;29;20043;-64
2023/12/16 00:47:00;;;;;;;36.55;25.58;;;13.50;95.80;;;;;;4947846;29;20135;-64
2023/12/16 00:49:28;;;;;;;31.35;23.77;;;14.00;99.90;;;;;;4947171;28;20408;-64
2023/12/16 00:51:56;;;;;;;31.52;24.10;;;14.90;99.90;;;;;;4947851;29;20050;-66
2023/12/16 00:54:22;;;;;;;28.98;24.70;;;13.70;99.90;;;;;;4947206;29;20503;-64
2023/12/16 00:56:47;;;;;;;30.65;23.20;;;14.20;99.90;;;;;;4947499;29;20078;-66
2023/12/16 00:59:13;;;;;;;30.67;25.38;;;13.80;99.90;;;;;;4947181;29;20066;-65
2023/12/16 01:01:39;;;;;;;38.70;23.98;;;14.40;99.90;;;;;;4949054;28;20192;-65
2023/12/16 01:04:04;;;;;;;35.22;23.23;;;13.70;99.90;;;;;;4931480;29;20627;-65
2023/12/16 01:06:30;;;;;;;26.42;21.90;;;14.80;99.90;;;;;;4947261;29;20043;-67
2023/12/16 01:08:55;;;;;;;30.25;23.45;;;13.80;99.90;;;;;;4948004;28;20464;-65
2023/12/16 01:11:21;;;;;;;35.47;25.35;;;13.60;99.90;;;;;;4945350;28;20512;-64
2023/12/16 01:13:46;;;;;;;29.00;25.08;;;14.20;99.90;;;;;;4945718;29;20051;-64
2023/12/16 01:16:12;;;;;;;31.75;22.80;;;13.70;99.90;;;;;;4946316;29;20086;-64
2023/12/16 01:18:38;;;;;;;28.77;24.13;;;13.90;99.90;;;;;;4945827;29;20043;-64
2023/12/16 01:21:08;;;;;;;36.38;24.40;;;14.80;99.90;;;;;;4947698;28;20066;-65
2023/12/16 01:23:34;;;;;;;29.25;23.85;;;13.90;99.90;;;;;;4946541;29;20051;-68
2023/12/16 01:26:00;;;;;;;33.95;24.25;;;14.20;99.90;;;;;;4946279;29;20339;-64
2023/12/16 01:28:26;;;;;;;33.78;24.05;;;13.70;99.90;;;;;;4947408;28;20452;-64
2023/12/16 01:30:51;;;;;;;37.83;26.15;;;14.20;99.90;;;;;;4945843;28;20098;-65
2023/12/16 01:33:17;;;;;;;37.50;26.02;;;14.90;99.90;;;;;;4945740;29;20055;-65
2023/12/16 01:35:42;;;;;;;38.22;26.35;;;14.40;99.90;;;;;;4947226;29;20074;-65
2023/12/16 01:38:08;;;;;;;40.72;26.60;;;14.10;99.90;;;;;;4945542;29;20538;-64
2023/12/16 01:40:33;;;;;;;30.02;22.45;;;14.50;99.90;;;;;;4945803;29;20047;-66
2023/12/16 01:43:03;;;;;;;33.60;23.25;;;13.80;99.90;;;;;;4947527;29;20148;-65
2023/12/16 01:45:29;;;;;;;33.92;24.08;;;14.30;99.90;;;;;;4947526;29;20047;-65
2023/12/16 01:47:55;;;;;;;36.50;24.73;;;14.10;99.90;;;;;;4945731;29;20062;-67
2023/12/16 01:50:21;;;;;;;45.85;27.02;;;14.10;99.90;;;;;;4945566;28;20067;-65
2023/12/16 01:52:47;;;;;;;41.17;28.38;;;14.50;99.90;;;;;;4945875;29;20074;-66
2023/12/16 01:55:14;;;;;;;45.42;28.65;;;13.90;99.90;;;;;;4947871;28;20058;-65
2023/12/16 01:57:41;;;;;;;41.38;26.85;;;14.10;99.90;;;;;;4946854;29;20062;-67
2023/12/16 02:00:07;;;;;;;41.15;27.45;;;14.00;99.90;;;;;;4946971;29;20564;-66
2023/12/16 02:02:33;;;;;;;43.35;26.25;;;14.50;99.90;;;;;;4945938;29;20058;-65
2023/12/16 02:04:59;;;;;;;34.92;25.05;;;14.30;99.90;;;;;;4946000;29;20043;-65
2023/12/16 02:07:25;;;;;;;34.10;25.02;;;14.30;99.90;;;;;;4945278;29;20462;-65
2023/12/16 02:09:51;;;;;;;46.92;27.50;;;14.20;99.90;;;;;;4947610;28;20050;-65
2023/12/16 02:12:19;;;;;;;39.33;31.33;;;14.50;99.90;;;;;;4947531;29;20051;-66
2023/12/16 02:14:45;;;;;;;40.03;27.88;;;14.50;99.90;;;;;;4947035;29;20541;-65
2023/12/16 02:17:10;;;;;;;38.38;28.67;;;14.20;99.90;;;;;;4947096;29;20122;-64
2023/12/16 02:19:37;;;;;;;40.55;27.85;;;14.30;99.90;;;;;;4946710;29;20118;-65
2023/12/16 02:22:03;;;;;;;33.88;23.55;;;14.70;99.90;;;;;;4946842;28;20059;-65
2023/12/16 02:24:31;;;;;;;38.88;25.10;;;14.20;99.90;;;;;;4947640;28;20707;-66
2023/12/16 02:26:57;;;;;;;32.97;23.95;;;14.60;99.90;;;;;;4948879;29;20497;-65
2023/12/16 02:29:22;;;;;;;45.13;27.45;;;14.60;99.90;;;;;;4950858;29;20082;-67
2023/12/16 02:31:48;;;;;;;33.28;27.15;;;14.20;99.90;;;;;;4950550;28;20050;-65
2023/12/16 02:34:13;;;;;;;39.55;28.20;;;14.00;99.90;;;;;;4950265;28;20043;-67
2023/12/16 02:36:39;;;;;;;42.97;26.75;;;14.10;99.90;;;;;;4950651;28;20046;-66
2023/12/16 02:39:05;;;;;;;41.67;28.45;;;14.80;99.90;;;;;;4949598;29;20145;-66
2023/12/16 02:41:30;;;;;;;28.00;24.55;;;14.30;99.90;;;;;;4950581;29;20470;-65
2023/12/16 02:43:56;;;;;;;40.40;27.90;;;14.10;99.90;;;;;;4950230;29;20047;-65
2023/12/16 02:46:21;;;;;;;42.08;27.50;;;13.90;99.90;;;;;;4950297;29;20047;-66
2023/12/16 02:48:47;;;;;;;44.25;30.33;;;14.10;99.90;;;;;;4950025;28;20075;-66
2023/12/16 02:51:17;;;;;;;45.85;29.50;;;13.90;99.90;;;;;;4948133;29;20488;-65
2023/12/16 02:53:43;;;;;;;44.38;30.35;;;14.60;99.90;;;;;;4932084;29;20133;-66
2023/12/16 02:56:08;;;;;;;48.08;28.10;;;14.30;99.90;;;;;;4949042;29;20051;-65
2023/12/16 02:58:34;;;;;;;51.70;28.23;;;14.70;99.90;;;;;;4951110;29;20051;-65
2023/12/16 03:00:59;;;;;;;44.28;29.52;;;14.40;99.90;;;;;;4950844;29;20057;-66
2023/12/16 03:03:25;;;;;;;47.03;28.85;;;14.90;99.90;;;;;;4949137;29;20047;-66
2023/12/16 03:05:50;;;;;;;48.92;29.42;;;14.50;99.90;;;;;;4932919;29;20058;-66
2023/12/16 03:08:16;;;;;;;45.17;29.25;;;14.10;99.90;;;;;;4949224;29;20035;-66
2023/12/16 03:10:41;;;;;;;52.35;30.77;;;14.10;99.90;;;;;;4950920;29;20042;-66
2023/12/16 03:13:07;;;;;;;54.55;31.77;;;14.80;99.90;;;;;;4949191;29;20081;-66
2023/12/16 03:15:33;;;;;;;42.70;27.08;;;14.50;99.90;;;;;;4948673;29;20546;-66
2023/12/16 03:17:58;;;;;;;32.35;24.50;;;15.40;99.90;;;;;;4948185;29;20043;-66
2023/12/16 03:20:24;;;;;;;54.97;31.48;;;14.40;99.90;;;;;;4949193;29;20071;-66
2023/12/16 03:22:49;;;;;;;54.55;31.67;;;14.30;99.90;;;;;;4950082;29;20070;-66
2023/12/16 03:25:15;;;;;;;50.22;29.13;;;14.80;99.90;;;;;;4949015;29;20054;-66
2023/12/16 03:27:40;;;;;;;51.55;27.88;;;14.20;99.90;;;;;;4950445;28;20047;-66
2023/12/16 03:30:06;;;;;;;52.00;33.17;;;13.90;99.90;;;;;;4949048;29;20089;-65
2023/12/16 03:32:32;;;;;;;51.67;34.75;;;14.70;99.90;;;;;;4948746;29;20413;-65
2023/12/16 03:34:58;;;;;;;48.70;29.30;;;14.10;99.90;;;;;;4964551;28;20484;-65
2023/12/16 03:37:23;;;;;;;53.28;31.13;;;14.20;99.90;;;;;;4948092;29;20051;-65
2023/12/16 03:39:49;;;;;;;44.25;28.15;;;14.30;99.90;;;;;;4949966;29;20051;-66
2023/12/16 03:42:14;;;;;;;56.88;32.92;;;14.30;99.90;;;;;;4950466;29;20074;-66
2023/12/16 03:44:41;;;;;;;49.95;32.38;;;14.90;99.90;;;;;;4948783;29;20496;-65
2023/12/16 03:47:07;;;;;;;53.60;34.10;;;14.30;99.90;;;;;;4950402;28;20074;-66
2023/12/16 03:49:32;;;;;;;53.58;34.80;;;14.70;99.90;;;;;;4949523;28;20097;-66
2023/12/16 03:51:58;;;;;;;57.80;34.25;;;13.90;99.90;;;;;;4950469;28;20510;-66
2023/12/16 03:54:24;;;;;;;62.70;34.63;;;14.80;99.90;;;;;;4948177;29;20130;-65
2023/12/16 03:56:49;;;;;;;59.70;33.75;;;14.80;99.90;;;;;;4931970;29;20071;-66
2023/12/16 03:59:15;;;;;;;63.38;35.58;;;14.30;99.90;;;;;;4950162;29;20043;-66
2023/12/16 04:01:45;;;;;;;58.30;33.35;;;14.30;99.90;;;;;;4948707;29;20054;-65
2023/12/16 04:04:10;;;;;;;40.80;27.55;;;14.80;99.90;;;;;;4948546;29;20039;-66
2023/12/16 04:06:36;;;;;;;65.70;33.35;;;14.00;99.90;;;;;;4947935;29;20054;-66
2023/12/16 04:09:01;;;;;;;67.50;34.65;;;14.00;99.90;;;;;;4948097;29;20525;-65
2023/12/16 04:11:27;;;;;;;62.05;34.47;;;14.20;99.90;;;;;;4946090;29;20115;-64
2023/12/16 04:13:52;;;;;;;63.92;38.45;;;14.80;99.90;;;;;;4931457;29;20576;-64
2023/12/16 04:16:19;;;;;;;63.95;34.65;;;14.70;99.90;;;;;;4931916;29;20486;-65
2023/12/16 04:18:45;;;;;;;67.57;36.53;;;14.80;99.90;;;;;;4947003;29;20054;-64
2023/12/16 04:21:10;;;;;;;72.60;36.83;;;14.10;99.90;;;;;;4947103;29;20043;-65
2023/12/16 04:23:36;;;;;;;68.50;35.47;;;15.30;99.90;;;;;;4947312;29;20070;-65
2023/12/16 04:26:02;;;;;;;68.28;38.30;;;13.80;99.90;;;;;;4947364;29;20063;-64
2023/12/16 04:28:28;;;;;;;63.03;37.85;;;14.20;99.90;;;;;;4947991;29;20171;-64
2023/12/16 04:30:53;;;;;;;69.40;39.42;;;14.50;99.90;;;;;;4948132;29;20066;-66
2023/12/16 04:33:19;;;;;;;75.45;40.65;;;14.90;99.90;;;;;;4948924;29;20047;-64
2023/12/16 04:35:44;;;;;;;63.85;34.75;;;14.20;99.90;;;;;;4947867;29;20521;-65
2023/12/16 04:38:10;;;;;;;58.55;31.77;;;14.60;99.90;;;;;;4948280;29;20509;-65
2023/12/16 04:40:36;;;;;;;68.65;40.63;;;15.10;99.90;;;;;;4947599;29;20050;-65
2023/12/16 04:43:01;;;;;;;73.55;39.70;;;15.20;99.90;;;;;;4947778;29;20051;-65
2023/12/16 04:45:27;;;;;;;69.13;37.63;;;14.30;99.90;;;;;;4948028;29;20043;-65
2023/12/16 04:47:52;;;;;;;69.97;34.92;;;15.10;99.90;;;;;;4948703;28;20066;-65
2023/12/16 04:50:18;;;;;;;69.13;38.50;;;14.50;99.90;;;;;;4947863;28;20130;-65
2023/12/16 04:52:44;;;;;;;71.65;38.45;;;14.60;99.90;;;;;;4947843;29;20039;-67
2023/12/16 04:55:10;;;;;;;69.75;38.83;;;14.10;99.90;;;;;;4947744;29;20097;-65
2023/12/16 04:57:36;;;;;;;80.40;38.22;;;15.10;99.90;;;;;;4948779;28;20142;-65
2023/12/16 05:00:04;;;;;;;78.85;40.95;;;14.30;99.90;;;;;;4948845;28;20081;-65
2023/12/16 05:02:30;;;;;;;80.45;40.65;;;14.90;99.90;;;;;;4928658;29;20055;-65
2023/12/16 05:04:56;;;;;;;69.95;36.72;;;15.50;99.90;;;;;;4928851;29;20402;-66
2023/12/16 05:07:21;;;;;;;71.72;37.85;;;14.30;99.90;;;;;;4940042;29;20050;-66
2023/12/16 05:09:47;;;;;;;80.93;36.00;;;14.40;99.90;;;;;;4948957;29;20078;-66
2023/12/16 05:12:13;;;;;;;82.10;37.97;;;15.40;99.90;;;;;;4948402;29;20612;-66
2023/12/16 05:14:41;;;;;;;83.93;37.15;;;15.20;99.90;;;;;;4948390;29;20145;-65
2023/12/16 05:17:07;;;;;;;73.70;37.55;;;14.20;99.90;;;;;;4946553;29;20055;-65
2023/12/16 05:19:33;;;;;;;78.82;39.10;;;15.00;99.90;;;;;;4947180;29;20058;-65
2023/12/16 05:21:58;;;;;;;81.82;40.00;;;14.40;99.90;;;;;;4947318;29;20043;-66
2023/12/16 05:24:24;;;;;;;74.78;37.58;;;15.40;99.90;;;;;;4947300;29;20051;-65
2023/12/16 05:26:50;;;;;;;76.60;38.47;;;15.60;99.90;;;;;;4949025;28;20043;-65
2023/12/16 05:29:15;;;;;;;74.18;37.38;;;14.60;99.90;;;;;;4948735;28;20169;-66
2023/12/16 05:31:41;;;;;;;75.65;40.70;;;14.60;99.90;;;;;;4947817;28;20114;-65
2023/12/16 05:34:07;;;;;;;67.45;34.28;;;15.30;99.90;;;;;;4946376;29;20494;-65
2023/12/16 05:36:32;;;;;;;72.78;38.63;;;14.20;99.90;;;;;;4948382;28;20047;-66
2023/12/16 05:38:58;;;;;;;70.30;38.08;;;14.40;99.90;;;;;;4947986;29;20194;-66
2023/12/16 05:41:24;;;;;;;72.40;37.38;;;15.30;99.90;;;;;;4931203;29;20047;-67
2023/12/16 05:43:49;;;;;;;84.55;40.70;;;15.10;99.90;;;;;;4946585;29;20141;-66
2023/12/16 05:46:15;;;;;;;76.82;38.67;;;14.60;99.90;;;;;;4947782;29;20051;-65
2023/12/16 05:48:40;;;;;;;77.40;39.65;;;14.40;99.90;;;;;;4946444;29;20043;-65
2023/12/16 05:51:06;;;;;;;70.05;37.72;;;15.10;99.90;;;;;;4948001;28;20497;-65
2023/12/16 05:53:33;;;;;;;68.85;33.47;;;15.00;99.90;;;;;;4946161;29;20151;-66
2023/12/16 05:55:59;;;;;;;76.95;37.17;;;15.10;99.90;;;;;;4947726;29;20548;-65
2023/12/16 05:58:25;;;;;;;76.57;36.63;;;14.30;99.90;;;;;;4948480;28;20039;-67
2023/12/16 06:00:50;;;;;;;70.90;35.72;;;14.40;99.90;;;;;;4952261;28;20528;-66
2023/12/16 06:03:16;;;;;;;79.72;36.72;;;14.70;99.90;;;;;;4951920;28;20533;-66
2023/12/16 06:05:41;;;;;;;73.57;39.63;;;15.30;99.90;;;;;;4950268;29;20050;-65
2023/12/16 06:08:07;;;;;;;68.97;37.45;;;14.40;99.90;;;;;;4950036;29;20043;-65
2023/12/16 06:10:32;;;;;;;74.80;37.70;;;14.10;99.90;;;;;;4952308;29;20051;-65
2023/12/16 06:12:58;;;;;;;72.50;38.67;;;14.40;99.90;;;;;;4950897;29;20508;-66
2023/12/16 06:15:23;;;;;;;78.30;38.25;;;15.50;99.90;;;;;;4950378;29;20050;-66
2023/12/16 06:17:49;;;;;;;81.43;38.72;;;14.60;99.90;;;;;;4950204;29;20051;-66
2023/12/16 06:20:14;;;;;;;80.05;38.50;;;14.70;99.90;;;;;;4951525;29;20042;-64
2023/12/16 06:22:40;;;;;;;75.80;38.47;;;15.20;99.90;;;;;;4949939;29;20138;-67
2023/12/16 06:25:06;;;;;;;68.38;37.03;;;15.10;99.90;;;;;;4949289;28;20047;-66
2023/12/16 06:27:32;;;;;;;67.57;36.40;;;14.80;99.90;;;;;;4949794;29;20090;-66
2023/12/16 06:29:58;;;;;;;78.32;36.90;;;15.90;99.90;;;;;;4951170;29;20085;-66
2023/12/16 06:32:23;;;;;;;82.90;38.88;;;14.60;99.90;;;;;;4951590;28;20039;-65
2023/12/16 06:34:49;;;;;;;77.10;38.20;;;14.50;99.90;;;;;;4951923;29;20126;-66
2023/12/16 06:37:14;;;;;;;73.78;38.25;;;15.60;99.90;;;;;;4951230;29;20106;-65
2023/12/16 06:39:40;;;;;;;68.75;38.47;;;14.80;99.90;;;;;;4950831;29;20057;-65
2023/12/16 06:42:05;;;;;;;81.68;38.88;;;14.50;99.90;;;;;;4949892;29;20047;-66
2023/12/16 06:44:31;;;;;;;80.82;39.45;;;15.20;99.90;;;;;;4951483;29;20567;-65
2023/12/16 06:46:56;;;;;;;78.13;37.75;;;14.40;99.90;;;;;;4949836;29;20051;-66
2023/12/16 06:49:22;;;;;;;80.30;38.88;;;14.90;99.90;;;;;;4950889;28;20519;-66
2023/12/16 06:51:48;;;;;;;73.22;38.63;;;15.70;99.90;;;;;;4949824;29;20043;-66
2023/12/16 06:54:14;;;;;;;77.18;40.15;;;15.60;99.90;;;;;;4948947;29;20051;-65
2023/12/16 06:56:40;;;;;;;70.35;38.88;;;15.30;99.90;;;;;;4949919;29;20051;-65
2023/12/16 06:59:06;;;;;;;81.72;39.42;;;15.00;99.90;;;;;;4950265;28;20187;-65
2023/12/16 07:01:31;;;;;;;66.75;38.67;;;15.40;99.90;;;;;;4950762;29;20526;-66
2023/12/16 07:03:57;;;;;;;79.47;36.95;;;15.60;99.90;;;;;;4933331;29;20047;-66
2023/12/16 07:06:22;;;;;;;67.45;36.97;;;15.90;99.90;;;;;;4951005;29;20110;-65
2023/12/16 07:08:48;;;;;;;68.05;35.72;;;15.60;99.90;;;;;;4949391;29;20043;-66
2023/12/16 07:11:14;;;;;;;73.00;38.05;;;14.60;99.90;;;;;;4949325;28;20130;-65
2023/12/16 07:13:40;;;;;;;83.60;37.38;;;14.50;99.90;;;;;;4950620;28;20043;-66
2023/12/16 07:16:06;;;;;;;71.93;36.22;;;15.10;99.90;;;;;;4944781;29;20062;-66
2023/12/16 07:18:32;;;;;;;60.28;34.72;;;14.10;99.90;;;;;;4950751;28;20053;-65
2023/12/16 07:20:58;;;;;;;67.53;35.85;;;14.40;99.90;;;;;;4949323;29;20043;-65
2023/12/16 07:23:24;;;;;;;70.40;34.42;;;14.00;99.90;;;;;;4949115;29;20470;-65
2023/12/16 07:25:50;;;;;;;83.22;36.97;;;14.00;99.90;;;;;;4949855;29;20496;-66
2023/12/16 07:28:21;;;;;;;73.68;36.17;;;14.90;99.90;;;;;;4949733;29;20047;-66
2023/12/16 07:30:46;;;;;;;62.95;32.92;;;15.20;99.90;;;;;;4950196;28;20051;-67
2023/12/16 07:33:12;;;;;;;66.32;32.10;;;14.40;99.90;;;;;;4950316;29;20564;-66
2023/12/16 07:35:38;;;;;;;76.20;35.20;;;15.20;99.90;;;;;;4949062;29;20058;-65
2023/12/16 07:38:04;;;;;;;71.07;37.65;;;14.00;99.90;;;;;;4948683;29;20122;-66
2023/12/16 07:40:31;;;;;;;79.85;38.33;;;15.30;99.90;;;;;;4948802;29;20138;-66
2023/12/16 07:42:57;;;;;;;87.10;39.97;;;14.90;99.90;;;;;;4950077;29;20100;-67
2023/12/16 07:45:22;;;;;;;73.78;40.47;;;14.90;99.90;;;;;;4939611;29;20052;-66
2023/12/16 07:47:48;;;;;;;59.40;40.50;;;14.70;99.90;;;;;;4941299;29;20060;-66
2023/12/16 07:50:16;;;;;;;78.20;37.40;;;15.40;99.90;;;;;;4941385;28;20425;-66
2023/12/16 07:52:41;;;;;;;67.63;38.05;;;16.00;99.90;;;;;;4948686;29;20162;-65
2023/12/16 07:55:07;;;;;;;68.00;36.47;;;15.70;99.90;;;;;;4945616;29;20110;-65
2023/12/16 07:57:33;;;;;;;72.00;37.72;;;15.70;99.90;;;;;;4948848;29;20047;-65
2023/12/16 07:59:58;;;;;;;66.97;36.38;;;14.60;99.90;;;;;;4950183;29;20039;-65
2023/12/16 08:02:24;;;;;;;64.40;38.72;;;14.70;99.90;;;;;;4949586;28;20050;-65
2023/12/16 08:04:52;;;;;;;76.10;37.10;;;15.00;99.90;;;;;;4948262;28;20042;-65
2023/12/16 08:07:17;;;;;;;73.78;37.20;;;15.00;99.90;;;;;;4928060;29;20055;-66
2023/12/16 08:09:43;;;;;;;74.22;33.22;;;14.70;99.90;;;;;;4947121;29;20094;-66
2023/12/16 08:12:08;;;;;;;73.20;34.78;;;16.00;99.90;;;;;;4946564;29;20382;-66
2023/12/16 08:14:34;;;;;;;85.90;35.33;;;14.30;99.90;;;;;;4942306;29;20071;-66
2023/12/16 08:17:00;;;;;;;68.45;36.00;;;14.80;99.90;;;;;;4947927;29;20047;-66
2023/12/16 08:19:25;;;;;;;76.15;37.30;;;14.20;99.90;;;;;;4944861;29;20058;-66
2023/12/16 08:21:51;;;;;;;63.28;34.03;;;14.30;99.90;;;;;;4946844;28;20058;-65
2023/12/16 08:24:16;;;;;;;64.03;34.22;;;14.60;99.90;;;;;;4947141;29;20039;-66
2023/12/16 08:26:42;;;;;;;69.70;38.75;;;14.20;99.90;;;;;;4946452;29;20174;-66
2023/12/16 08:29:08;;;;;;;70.38;35.10;;;14.20;99.90;;;;;;4932298;29;20047;-67
2023/12/16 08:31:35;;;;;;;73.47;37.25;;;14.50;99.90;;;;;;4948280;29;20377;-67
2023/12/16 08:34:00;;;;;;;68.15;35.17;;;15.50;99.90;;;;;;4948361;29;20079;-66
2023/12/16 08:36:26;;;;;;;65.97;36.55;;;15.10;99.90;;;;;;4946028;29;20513;-67
2023/12/16 08:38:51;;;;;;;74.45;36.38;;;15.90;99.90;;;;;;4947107;29;20035;-67
2023/12/16 08:41:17;;;;;;;79.07;38.08;;;15.40;99.90;;;;;;4946808;29;20073;-66
2023/12/16 08:43:43;;;;;;;71.53;36.03;;;16.00;99.90;;;;;;4942411;29;20039;-65
2023/12/16 08:46:08;;;;;;;72.43;38.67;;;14.70;99.90;;;;;;4946836;28;20047;-66
2023/12/16 08:48:35;;;;;;;74.05;38.60;;;15.50;99.90;;;;;;4947319;29;20565;-68
2023/12/16 08:51:00;;;;;;;67.55;38.13;;;16.30;99.90;;;;;;4947654;28;20132;-66
2023/12/16 08:53:26;;;;;;;61.88;35.33;;;16.30;99.90;;;;;;4947309;29;20047;-67
2023/12/16 08:55:52;;;;;;;61.78;36.90;;;16.30;99.90;;;;;;4947586;29;20047;-67
2023/12/16 08:58:18;;;;;;;67.85;36.28;;;15.70;99.90;;;;;;4946419;29;20081;-67
2023/12/16 09:00:44;;;;;;;60.97;36.40;;;15.30;99.90;;;;;;4945041;29;20041;-66
2023/12/16 09:03:13;;;;;;;65.20;38.95;;;15.20;99.90;;;;;;4947145;29;20059;-65
2023/12/16 09:05:39;;;;;;;64.78;35.50;;;15.40;99.90;;;;;;4956234;28;20039;-65
2023/12/16 09:08:04;;;;;;;56.60;36.28;;;15.00;99.90;;;;;;4946736;29;20054;-65
2023/12/16 09:10:30;;;;;;;59.92;35.67;;;15.80;99.90;;;;;;4946883;29;20038;-64
2023/12/16 09:12:55;;;;;;;61.55;33.53;;;15.00;99.90;;;;;;4949148;29;20061;-64
2023/12/16 09:15:21;;;;;;;55.45;34.35;;;16.70;99.90;;;;;;4936419;29;20049;-64
2023/12/16 09:17:49;;;;;;;57.38;33.78;;;16.00;99.90;;;;;;4946755;28;20501;-65
2023/12/16 09:20:15;;;;;;;57.10;34.75;;;16.50;99.90;;;;;;4945315;29;20039;-66
2023/12/16 09:22:41;;;;;;;55.58;35.05;;;16.20;99.90;;;;;;4944512;29;20047;-65
2023/12/16 09:25:08;;;;;;;66.68;33.95;;;15.10;99.90;;;;;;4941567;29;20055;-65
2023/12/16 09:27:34;;;;;;;54.80;39.08;;;15.00;99.90;;;;;;4943768;29;20048;-65
2023/12/16 09:30:00;;;;;;;70.95;38.38;;;15.70;99.90;;;;;;4935040;29;20114;-67
2023/12/16 09:32:25;;;;;;;67.20;38.20;;;15.80;99.90;;;;;;4946718;28;20042;-65
2023/12/16 09:34:51;;;;;;;67.90;37.90;;;16.50;99.90;;;;;;4946919;28;20086;-65
2023/12/16 09:37:16;;;;;;;66.22;36.60;;;15.20;99.90;;;;;;4946304;28;20047;-64
2023/12/16 09:39:42;;;;;;;58.63;37.35;;;15.90;99.90;;;;;;4946263;29;20609;-65
2023/12/16 09:42:10;;;;;;;52.65;36.03;;;15.10;99.90;;;;;;4947340;29;20051;-66
2023/12/16 09:44:37;;;;;;;62.65;37.38;;;15.10;99.90;;;;;;4946973;29;20051;-66
2023/12/16 09:47:03;;;;;;;60.92;35.47;;;16.30;99.90;;;;;;4947344;29;20170;-66
2023/12/16 09:49:32;;;;;;;64.78;36.25;;;16.10;99.90;;;;;;4930694;29;20055;-66
2023/12/16 09:51:58;;;;;;;67.35;37.53;;;16.20;99.90;;;;;;4948592;29;20047;-66
2023/12/16 09:54:24;;;;;;;68.25;36.35;;;16.10;99.90;;;;;;4947990;29;20036;-67
2023/12/16 09:56:50;;;;;;;65.35;36.33;;;15.10;99.90;;;;;;4946648;29;20043;-65
2023/12/16 09:59:20;;;;;;;59.08;34.67;;;15.80;99.90;;;;;;4946897;29;20081;-66
2023/12/16 10:02:01;;;;;;;59.78;35.47;;;14.80;99.90;;;;;;4946688;29;20055;-66
2023/12/16 10:04:28;;;;;;;51.55;35.08;;;15.60;99.90;;;;;;4961456;28;20051;-73
2023/12/16 10:06:54;;;;;;;67.15;38.22;;;14.30;99.90;;;;;;4946035;28;20053;-66
2023/12/16 10:09:19;;;;;;;63.20;37.17;;;15.90;99.90;;;;;;4947485;29;20047;-66
2023/12/16 10:11:51;;;;;;;57.92;38.13;;;14.70;99.90;;;;;;4948025;29;20043;-67
2023/12/16 10:14:20;;;;;;;55.97;34.92;;;14.80;99.90;;;;;;4948241;29;20501;-67
2023/12/16 10:16:48;;;;;;;55.50;33.63;;;15.40;99.90;;;;;;4947343;29;20166;-65
2023/12/16 10:19:16;;;;;;;59.92;35.75;;;14.90;99.90;;;;;;4947511;29;20138;-66
2023/12/16 10:21:42;;;;;;;63.15;35.72;;;16.10;99.90;;;;;;4949171;29;20510;-66
2023/12/16 10:24:08;;;;;;;55.22;35.13;;;15.80;99.90;;;;;;4948711;29;20134;-66
2023/12/16 10:26:41;;;;;;;57.40;34.45;;;15.90;99.90;;;;;;4948418;29;20039;-66
2023/12/16 10:29:07;;;;;;;51.17;35.42;;;15.70;99.90;;;;;;4948108;29;20039;-66
2023/12/16 10:31:34;;;;;;;46.67;35.53;;;14.70;99.90;;;;;;4947247;29;20101;-66
2023/12/16 10:34:03;;;;;;;58.13;34.22;;;14.90;99.90;;;;;;4949271;29;20493;-66
2023/12/16 10:36:30;;;;;;;47.88;34.80;;;14.70;99.90;;;;;;4949732;29;20512;-66
2023/12/16 10:38:57;;;;;;;45.42;33.65;;;15.00;99.90;;;;;;4947497;29;20382;-66
2023/12/16 10:41:23;;;;;;;53.30;35.33;;;14.40;99.90;;;;;;4947378;29;20101;-67
2023/12/16 10:43:48;;;;;;;50.35;34.60;;;15.70;99.90;;;;;;4947740;29;20544;-67
2023/12/16 10:46:17;;;;;;;45.92;34.95;;;15.00;99.90;;;;;;4950180;29;20694;-66
2023/12/16 10:48:46;;;;;;;45.58;35.55;;;14.60;99.90;;;;;;4952142;28;20390;-67
2023/12/16 10:51:14;;;;;;;46.85;36.38;;;15.50;99.90;;;;;;4951674;29;20047;-66
2023/12/16 10:53:52;;;;;;;41.35;34.75;;;15.60;99.90;;;;;;4950825;29;20042;-65
2023/12/16 10:56:30;;;;;;;48.95;34.88;;;15.70;99.90;;;;;;4951570;29;20046;-65
2023/12/16 10:59:06;;;;;;;48.53;35.40;;;14.60;99.90;;;;;;4935111;29;20171;-66
2023/12/16 11:01:42;;;;;;;47.15;36.08;;;14.50;99.90;;;;;;4952147;29;20083;-66
2023/12/16 11:04:12;;;;;;;49.70;36.22;;;14.40;99.90;;;;;;4950470;29;20051;-66
2023/12/16 11:06:53;;;;;;;46.30;34.08;;;15.80;99.90;;;;;;4950676;29;20579;-66
2023/12/16 11:09:20;;;;;;;41.28;34.22;;;14.60;99.90;;;;;;4951999;29;20513;-66
2023/12/16 11:11:46;;;;;;;44.22;36.03;;;15.90;99.90;;;;;;4950774;29;20047;-66
2023/12/16 11:14:13;;;;;;;48.50;36.75;;;15.90;99.90;;;;;;4950605;29;20754;-66
2023/12/16 11:16:55;;;;;;;43.80;38.15;;;15.80;99.90;;;;;;4950754;29;20493;-66
2023/12/16 11:19:27;;;;;;;43.42;34.13;;;15.90;99.90;;;;;;4931915;29;20631;-67
2023/12/16 11:21:52;;;;;;;47.85;33.67;;;14.80;99.90;;;;;;4933148;29;20051;-66
2023/12/16 11:24:19;;;;;;;45.88;32.80;;;15.20;99.90;;;;;;4947835;29;20053;-66
2023/12/16 11:26:52;;;;;;;45.28;32.45;;;16.10;99.90;;;;;;4950397;29;20103;-67
2023/12/16 11:29:22;;;;;;;45.17;31.67;;;15.70;99.90;;;;;;4934972;29;20055;-67
2023/12/16 11:31:52;;;;;;;45.63;31.40;;;15.90;99.90;;;;;;4951750;29;20578;-67
2023/12/16 11:34:43;;;;;;;45.90;31.63;;;15.60;99.90;;;;;;4951476;28;20039;-66
2023/12/16 11:37:12;;;;;;;40.92;33.08;;;15.80;99.90;;;;;;4951077;29;20094;-67
2023/12/16 11:39:40;;;;;;;39.60;32.13;;;16.40;99.90;;;;;;4952201;28;20444;-67
2023/12/16 11:42:11;;;;;;;48.25;32.47;;;15.00;99.90;;;;;;4950504;29;20138;-66
2023/12/16 11:44:50;;;;;;;43.92;33.45;;;16.40;99.90;;;;;;4950326;29;20054;-67
2023/12/16 11:47:24;;;;;;;44.60;33.55;;;15.90;99.90;;;;;;4934825;29;20124;-66
2023/12/16 11:49:51;;;;;;;45.42;33.40;;;15.60;99.90;;;;;;4949685;28;20055;-67
2023/12/16 11:52:20;;;;;;;48.28;32.40;;;16.10;99.90;;;;;;4949800;29;20039;-67
2023/12/16 11:54:49;;;;;;;42.75;33.88;;;16.30;99.90;;;;;;4949776;29;20035;-67
2023/12/16 11:57:22;;;;;;;41.30;33.78;;;15.10;99.90;;;;;;4933848;29;20118;-66
2023/12/16 11:59:49;;;;;;;46.20;33.53;;;16.20;99.90;;;;;;4949884;29;20061;-66
2023/12/16 12:02:14;;;;;;;43.70;34.03;;;14.90;99.90;;;;;;4948955;29;20070;-66
2023/12/16 12:04:41;;;;;;;41.03;33.20;;;15.00;99.90;;;;;;4951372;28;20086;-72
2023/12/16 12:07:07;;;;;;;42.90;33.03;;;15.00;99.90;;;;;;4948728;29;20103;-73
2023/12/16 12:09:32;;;;;;;47.65;33.47;;;15.60;99.90;;;;;;4948566;29;20047;-72
2023/12/16 12:11:58;;;;;;;36.50;32.20;;;15.60;99.90;;;;;;4948806;29;20556;-71
2023/12/16 12:14:24;;;;;;;41.67;31.73;;;15.10;99.90;;;;;;4949258;29;20055;-71
2023/12/16 12:16:50;;;;;;;43.33;31.65;;;16.30;99.90;;;;;;4948407;29;20075;-72
2023/12/16 12:19:16;;;;;;;41.70;33.42;;;16.00;99.90;;;;;;4948995;29;20059;-72
2023/12/16 12:21:42;;;;;;;40.45;32.92;;;16.40;99.90;;;;;;4948121;29;20051;-72
2023/12/16 12:24:08;;;;;;;40.47;32.20;;;15.40;99.90;;;;;;4948881;29;20050;-72